• Join FlightAware (Why Join?)
  • Login
  • US Flag 
09:04AM EDT


 

Airport Tracker/Info


-or-


 

Live Flight TrackerFlight Track Log ✈ N6319G ✈ 10-Jul-2013 ✈ C29 - KDBQ

Flight Track Log - Related Links

Times and Time Zones

All times are in EDT time to prevent confusion due to time zone crossing. See the N6319G flight status page for this flight to view local times or setup timezone preferences in your user account.

Time Position Orientation Groundspeed Altitude Reporting Facility
EDT Latitude Longitude Course Direction KTS MPH feet Rate Location/Type
06:07PM 43.0136 -89.6019 231° Southwest 109 125 4,500  Level Chicago Center
06:08PM 42.9856 -89.6269 213° Southwest 104 120 4,500 -120 Level Chicago Center
06:09PM 42.9581 -89.6483 210° Southwest 110 127 4,300 -60 Descending Chicago Center
06:10PM 42.9403 -89.6733 226° Southwest 100 115 4,400  Climbing Chicago Center
06:11PM 42.9784 -89.7599 231° Southwest  Level Estimated
06:11PM 42.9194 -89.6939 216° Southwest 92 106 4,400  Level Chicago Center
06:12PM 42.9557 -89.7979 231° Southwest  Level Estimated
06:12PM 42.8944 -89.7133 210° Southwest 99 114 4,500  Level Chicago Center
06:13PM 42.8678 -89.7372 213° Southwest 99 114 4,500 -60 Level Chicago Center
06:14PM 42.8447 -89.7572 212° Southwest 98 113 4,400 -60 Descending Chicago Center
06:15PM 42.8333 -89.7908 245° Southwest 97 112 4,400  Level Chicago Center
06:16PM 42.8269 -89.8261 256° West 96 110 4,500  Climbing Chicago Center
06:17PM 42.8222 -89.8614 260° West 95 109 4,500  Level Chicago Center
06:18PM 42.8144 -89.8958 253° West 95 109 4,500 -60 Level Chicago Center
06:19PM 42.8069 -89.9358 256° West 95 109 4,400 -60 Descending Chicago Center
06:20PM 42.7983 -89.9717 252° West 98 113 4,400  Level Chicago Center
06:21PM 42.7953 -90.0053 263° West 92 106 4,500  Climbing Chicago Center
06:22PM 42.7842 -90.0381 245° Southwest 95 109 4,400 -60 Descending Chicago Center
06:23PM 42.7694 -90.0689 237° Southwest 98 113 4,400  Level Chicago Center
06:24PM 42.7667 -90.1131 265° West 97 112 4,400  Level Chicago Center
06:25PM 42.7722 -90.1456 283° West 91 105 4,400  Level Chicago Center
06:26PM 42.7717 -90.1764 269° West 85 98 4,500  Climbing Chicago Center
06:27PM 42.7614 -90.2094 247° West 92 106 4,500  Level Chicago Center
06:28PM 42.7489 -90.2417 242° Southwest 96 110 4,500  Level Chicago Center
06:29PM 42.7303 -90.2792 236° Southwest 99 114 4,500 -60 Level Chicago Center
06:30PM 42.7169 -90.3114 241° Southwest 100 115 4,400  Descending Chicago Center
06:31PM 42.7000 -90.3411 232° Southwest 100 115 4,500  Climbing Chicago Center
06:32PM 42.6858 -90.3725 238° Southwest 100 115 4,500 -240 Level Chicago Center
06:34PM 42.6697 -90.4050 236° Southwest 103 119 4,100 -540 Descending Chicago Center
06:35PM 42.6456 -90.4431 229° Southwest 108 124 3,500 -600 Descending Chicago Center
06:36PM 42.6303 -90.4792 240° Southwest 111 128 2,900 -300 Descending Chicago Center
06:37PM 42.6131 -90.5058 229° Southwest 104 120 2,900 60 Level Chicago Center
06:38PM 42.5950 -90.5267 220° Southwest 95 109 3,100 60 Climbing Chicago Center
06:39PM 42.5775 -90.5533 228° Southwest 94 108 3,100  Level Chicago Center